Time;durP1;ratioP1;P1;durP2;ratioP2;P2;SDS_P1;SDS_P2;PMS_P1;PMS_P2;Temp;Humidity;BMP_temperature;BMP_pressure;BME280_temperature;BME280_humidity;BME280_pressure;Samples;Min_cycle;Max_cycle;Signal;HPM_P1;HPM_P2
2023/10/30 00:01:38;;;;;;;13.77;2.67;;;20.50;99.90;;;;;;4985127;28;20026;-70
2023/10/30 00:04:05;;;;;;;11.18;2.30;;;20.40;99.90;;;;;;4994154;28;20145;-70
2023/10/30 00:06:33;;;;;;;13.50;2.35;;;20.40;99.90;;;;;;4994018;28;20031;-70
2023/10/30 00:08:59;;;;;;;8.73;2.22;;;20.40;99.90;;;;;;4994039;28;20034;-70
2023/10/30 00:11:25;;;;;;;10.07;2.13;;;20.40;99.90;;;;;;4993910;28;20387;-71
2023/10/30 00:13:51;;;;;;;7.95;1.95;;;20.40;99.90;;;;;;4993984;28;20070;-70
2023/10/30 00:16:17;;;;;;;9.00;2.33;;;20.40;99.90;;;;;;4994195;28;20057;-69
2023/10/30 00:18:43;;;;;;;12.38;2.88;;;20.50;99.90;;;;;;4993821;28;20475;-71
2023/10/30 00:21:09;;;;;;;12.02;2.50;;;20.50;99.90;;;;;;4994139;28;20375;-71
2023/10/30 00:23:36;;;;;;;16.65;2.40;;;20.50;99.90;;;;;;4993800;28;20331;-71
2023/10/30 00:26:05;;;;;;;11.68;2.30;;;20.40;99.90;;;;;;4963390;28;20027;-71
2023/10/30 00:28:33;;;;;;;12.52;2.70;;;20.40;99.90;;;;;;4974321;28;20031;-70
2023/10/30 00:31:00;;;;;;;15.68;2.35;;;20.50;99.90;;;;;;4974203;28;20131;-71
2023/10/30 00:33:26;;;;;;;8.98;2.40;;;20.50;99.90;;;;;;4973569;28;20109;-71
2023/10/30 00:35:52;;;;;;;13.52;2.25;;;20.50;99.90;;;;;;4974492;28;20383;-71
2023/10/30 00:38:18;;;;;;;10.65;2.35;;;20.40;99.90;;;;;;4972727;28;20022;-72
2023/10/30 00:40:44;;;;;;;9.85;2.30;;;20.30;99.90;;;;;;4977564;28;20471;-71
2023/10/30 00:43:10;;;;;;;11.43;2.20;;;20.20;99.90;;;;;;4975850;28;20064;-72
2023/10/30 00:45:37;;;;;;;13.70;2.58;;;20.20;99.90;;;;;;4965320;28;20026;-71
2023/10/30 00:48:03;;;;;;;11.40;2.42;;;20.20;99.90;;;;;;4972512;28;20046;-71
2023/10/30 00:50:32;;;;;;;12.20;2.53;;;20.20;99.90;;;;;;4972507;28;20023;-71
2023/10/30 00:52:58;;;;;;;6.85;2.40;;;20.20;99.90;;;;;;4974199;28;20082;-71
2023/10/30 00:55:30;;;;;;;13.77;2.92;;;20.20;99.90;;;;;;4972125;28;20392;-72
2023/10/30 00:57:56;;;;;;;11.10;2.40;;;20.20;99.90;;;;;;4973737;28;20029;-72
2023/10/30 01:00:22;;;;;;;10.32;2.70;;;20.20;99.90;;;;;;4973728;28;20034;-70
2023/10/30 01:02:48;;;;;;;12.75;2.60;;;20.20;99.90;;;;;;4955569;28;20033;-71
2023/10/30 01:05:15;;;;;;;7.75;2.55;;;20.20;99.90;;;;;;4972690;28;20106;-72
2023/10/30 01:07:41;;;;;;;11.82;2.60;;;20.20;99.90;;;;;;4973154;28;20046;-72
2023/10/30 01:10:10;;;;;;;10.30;2.33;;;20.20;99.90;;;;;;4972841;28;20039;-72
2023/10/30 01:12:36;;;;;;;11.65;2.63;;;20.10;99.90;;;;;;4991278;28;20014;-71
2023/10/30 01:15:02;;;;;;;9.88;2.67;;;20.20;99.90;;;;;;4992428;28;20046;-71
2023/10/30 01:17:28;;;;;;;8.07;2.55;;;20.10;99.90;;;;;;4990664;28;20030;-71
2023/10/30 01:19:54;;;;;;;10.95;2.47;;;20.10;99.90;;;;;;4992527;28;20069;-72
2023/10/30 01:22:20;;;;;;;17.90;2.85;;;20.10;99.90;;;;;;4992148;28;20030;-72
2023/10/30 01:24:46;;;;;;;11.80;2.53;;;20.20;99.90;;;;;;4991949;28;20023;-71
2023/10/30 01:27:12;;;;;;;14.02;3.05;;;20.20;99.90;;;;;;4992249;28;20109;-72
2023/10/30 01:29:38;;;;;;;12.30;2.67;;;20.20;99.90;;;;;;4992002;28;20101;-70
2023/10/30 01:32:05;;;;;;;13.10;3.08;;;20.20;99.90;;;;;;4992022;28;20442;-72
2023/10/30 01:34:31;;;;;;;14.52;3.08;;;20.10;99.90;;;;;;4992187;28;20141;-72
2023/10/30 01:36:57;;;;;;;10.55;2.50;;;20.10;99.90;;;;;;4991972;28;20061;-70
2023/10/30 01:39:23;;;;;;;12.13;3.05;;;20.00;99.90;;;;;;4991605;28;20019;-71
2023/10/30 01:41:49;;;;;;;14.82;3.42;;;19.90;99.90;;;;;;4991779;28;20033;-71
2023/10/30 01:44:15;;;;;;;13.93;3.25;;;19.90;99.90;;;;;;4991003;28;20370;-71
2023/10/30 01:46:41;;;;;;;12.65;2.70;;;19.80;99.90;;;;;;4991914;28;20030;-71
2023/10/30 01:49:07;;;;;;;10.02;2.85;;;19.80;99.90;;;;;;4991607;28;20145;-71
2023/10/30 01:51:33;;;;;;;11.45;2.55;;;19.80;99.90;;;;;;4991660;28;20080;-72
2023/10/30 01:53:59;;;;;;;12.82;2.53;;;19.90;99.90;;;;;;4991422;28;20026;-70
2023/10/30 01:56:26;;;;;;;12.90;3.00;;;19.90;99.90;;;;;;4991835;28;20042;-71
2023/10/30 01:58:52;;;;;;;;;;;20.00;99.90;;;;;;4992202;28;20030;-71
2023/10/30 02:01:18;;;;;;;10.38;2.60;;;20.00;99.90;;;;;;4974019;28;19913;-72
2023/10/30 02:03:44;;;;;;;14.20;3.00;;;20.00;99.90;;;;;;4989938;28;20053;-71
2023/10/30 02:06:10;;;;;;;13.15;3.03;;;20.00;99.90;;;;;;4991827;28;20030;-72
2023/10/30 02:08:37;;;;;;;9.77;2.67;;;19.90;99.90;;;;;;4991355;28;20018;-72
2023/10/30 02:11:03;;;;;;;15.68;2.72;;;19.90;99.90;;;;;;4991494;28;20030;-70
2023/10/30 02:13:29;;;;;;;9.85;2.80;;;19.90;99.90;;;;;;4973765;28;20125;-71
2023/10/30 02:15:55;;;;;;;9.35;3.10;;;20.00;99.90;;;;;;4991802;28;20050;-71
2023/10/30 02:18:21;;;;;;;13.75;3.08;;;19.90;99.90;;;;;;4991478;28;20125;-72
2023/10/30 02:20:47;;;;;;;8.50;2.90;;;20.00;99.90;;;;;;4991737;28;20034;-70
2023/10/30 02:23:14;;;;;;;11.40;2.95;;;19.90;99.90;;;;;;4991601;28;20050;-71
2023/10/30 02:25:40;;;;;;;14.75;3.00;;;19.90;99.90;;;;;;4972575;28;20027;-71
2023/10/30 02:28:07;;;;;;;21.23;3.10;;;20.00;99.90;;;;;;4971903;28;20135;-72
2023/10/30 02:30:33;;;;;;;10.77;3.08;;;20.00;99.90;;;;;;4971882;28;20428;-71
2023/10/30 02:32:59;;;;;;;13.50;3.28;;;20.00;99.90;;;;;;4971835;28;20536;-70
2023/10/30 02:35:25;;;;;;;10.55;3.20;;;20.00;99.90;;;;;;4972232;28;20035;-71
2023/10/30 02:37:51;;;;;;;8.30;2.50;;;20.00;99.90;;;;;;4972120;28;20511;-72
2023/10/30 02:40:17;;;;;;;11.05;2.65;;;20.00;99.90;;;;;;4954364;28;20031;-70
2023/10/30 02:42:46;;;;;;;10.55;2.95;;;20.10;99.90;;;;;;4972083;28;20058;-71
2023/10/30 02:45:12;;;;;;;11.73;2.72;;;20.10;99.90;;;;;;4971747;28;20089;-71
2023/10/30 02:47:38;;;;;;;14.43;2.75;;;20.10;99.90;;;;;;4972067;28;20061;-71
2023/10/30 02:50:05;;;;;;;13.27;2.90;;;20.20;99.90;;;;;;4971977;28;20114;-70
2023/10/30 02:52:32;;;;;;;10.00;2.92;;;20.20;99.90;;;;;;4971683;28;20027;-70
2023/10/30 02:54:58;;;;;;;12.52;3.20;;;20.20;99.90;;;;;;4971613;28;20456;-71
2023/10/30 02:57:24;;;;;;;12.25;2.83;;;20.10;99.90;;;;;;4975477;28;20033;-71
2023/10/30 02:59:50;;;;;;;27.42;3.53;;;20.10;99.90;;;;;;4975397;28;20105;-70
2023/10/30 03:02:16;;;;;;;10.98;2.95;;;20.10;99.90;;;;;;4975363;28;20058;-70
2023/10/30 03:04:42;;;;;;;13.00;3.28;;;20.10;99.90;;;;;;4975121;28;20089;-70
2023/10/30 03:07:08;;;;;;;9.77;3.00;;;20.10;99.90;;;;;;4975123;28;20019;-71
2023/10/30 03:09:37;;;;;;;11.73;2.67;;;20.10;99.90;;;;;;4974902;28;20078;-71
2023/10/30 03:12:04;;;;;;;15.13;3.22;;;20.10;99.90;;;;;;4989153;28;20042;-70
2023/10/30 03:14:31;;;;;;;11.18;3.20;;;20.10;99.90;;;;;;4994927;28;20442;-71
2023/10/30 03:16:57;;;;;;;10.02;2.92;;;20.10;99.90;;;;;;4994382;28;20181;-70
2023/10/30 03:19:23;;;;;;;15.60;3.70;;;20.10;99.90;;;;;;4994608;28;20113;-71
2023/10/30 03:21:49;;;;;;;15.57;3.08;;;20.10;99.90;;;;;;4994430;28;20026;-71
2023/10/30 03:24:15;;;;;;;13.75;3.30;;;20.10;99.90;;;;;;4994099;28;20022;-70
2023/10/30 03:26:42;;;;;;;11.65;3.17;;;20.10;99.90;;;;;;4994440;28;20030;-70
2023/10/30 03:29:08;;;;;;;;;;;20.10;99.90;;;;;;4994628;28;20459;-70
2023/10/30 03:31:34;;;;;;;13.32;3.20;;;20.10;99.90;;;;;;4994516;28;19913;-70
2023/10/30 03:34:00;;;;;;;17.17;3.30;;;20.10;99.90;;;;;;4993789;28;20026;-70
2023/10/30 03:36:29;;;;;;;15.60;3.25;;;20.10;99.90;;;;;;4999566;28;20030;-68
2023/10/30 03:38:55;;;;;;;10.18;3.35;;;20.10;99.90;;;;;;4997659;28;20026;-69
2023/10/30 03:41:21;;;;;;;8.30;3.13;;;20.10;99.90;;;;;;4994474;28;20145;-71
2023/10/30 03:43:47;;;;;;;15.32;3.15;;;20.20;99.90;;;;;;4974767;28;20050;-69
2023/10/30 03:46:13;;;;;;;9.73;2.58;;;20.20;99.90;;;;;;4974356;28;20074;-70
2023/10/30 03:48:39;;;;;;;10.13;3.13;;;20.20;99.90;;;;;;4988772;28;20022;-69
2023/10/30 03:51:08;;;;;;;8.43;2.65;;;20.30;99.90;;;;;;4987270;28;20483;-68
2023/10/30 03:53:34;;;;;;;10.90;2.45;;;20.40;99.90;;;;;;5004176;28;20044;-69
2023/10/30 03:56:06;;;;;;;10.55;2.47;;;20.40;99.90;;;;;;5002744;28;20062;-67
2023/10/30 03:58:32;;;;;;;13.68;3.00;;;20.50;99.90;;;;;;5003712;28;20014;-68
2023/10/30 04:01:05;;;;;;;9.95;2.67;;;20.40;99.90;;;;;;4994625;28;20029;-69
2023/10/30 04:03:31;;;;;;;11.80;2.60;;;20.40;99.90;;;;;;4998083;28;20115;-70
2023/10/30 04:06:01;;;;;;;10.55;2.53;;;20.50;99.90;;;;;;5013751;28;20140;-69
2023/10/30 04:08:28;;;;;;;10.05;2.60;;;20.50;99.90;;;;;;5012770;28;20064;-70
2023/10/30 04:10:54;;;;;;;16.20;2.83;;;20.50;99.90;;;;;;4990520;28;20514;-70
2023/10/30 04:13:21;;;;;;;10.38;2.40;;;20.50;99.90;;;;;;4985198;28;20383;-67
2023/10/30 04:15:47;;;;;;;8.77;2.72;;;20.50;99.90;;;;;;5013079;28;20085;-69
2023/10/30 04:18:18;;;;;;;10.90;2.83;;;20.50;99.90;;;;;;4978138;28;20034;-67
2023/10/30 04:20:45;;;;;;;10.90;2.83;;;20.50;99.90;;;;;;4987384;28;20029;-70
2023/10/30 04:23:14;;;;;;;13.35;3.20;;;20.60;99.90;;;;;;5002673;28;20041;-68
2023/10/30 04:25:41;;;;;;;10.90;2.58;;;20.50;99.90;;;;;;5013704;28;20018;-68
2023/10/30 04:28:07;;;;;;;11.95;3.22;;;20.50;99.90;;;;;;5005129;28;20052;-69
2023/10/30 04:30:35;;;;;;;11.15;2.95;;;20.60;99.90;;;;;;4994329;28;20018;-68
2023/10/30 04:33:02;;;;;;;12.48;3.03;;;20.60;99.90;;;;;;5009447;28;20025;-69
2023/10/30 04:35:28;;;;;;;11.48;3.53;;;20.60;99.90;;;;;;5003085;28;20719;-69
2023/10/30 04:37:54;;;;;;;8.35;2.90;;;20.60;99.90;;;;;;4991230;28;20072;-69
2023/10/30 04:40:20;;;;;;;10.25;3.05;;;20.60;99.90;;;;;;4994354;28;20048;-67
2023/10/30 04:42:46;;;;;;;13.52;3.10;;;20.70;99.90;;;;;;5011702;28;20058;-69
2023/10/30 04:45:12;;;;;;;9.25;3.10;;;20.60;99.90;;;;;;5013398;28;20100;-70
2023/10/30 04:47:38;;;;;;;15.23;3.38;;;20.60;99.90;;;;;;5013395;28;20026;-70
2023/10/30 04:50:05;;;;;;;9.07;2.83;;;20.60;99.90;;;;;;4995316;28;20079;-71
2023/10/30 04:52:31;;;;;;;16.38;3.22;;;20.60;99.90;;;;;;5013051;28;20032;-71
2023/10/30 04:54:57;;;;;;;11.52;3.92;;;20.60;99.90;;;;;;5012831;28;20428;-71
2023/10/30 04:57:23;;;;;;;13.82;3.33;;;20.60;99.90;;;;;;5013105;28;20076;-70
2023/10/30 04:59:49;;;;;;;12.52;3.53;;;20.60;99.90;;;;;;5012901;28;20080;-71
2023/10/30 05:02:15;;;;;;;17.20;3.78;;;20.60;99.90;;;;;;5012747;28;20022;-71
2023/10/30 05:04:41;;;;;;;13.05;3.63;;;20.50;99.90;;;;;;4994530;28;20524;-70
2023/10/30 05:07:07;;;;;;;11.63;3.60;;;20.60;99.90;;;;;;5012811;28;20035;-70
2023/10/30 05:09:33;;;;;;;12.00;3.55;;;20.60;99.90;;;;;;5012691;28;20029;-71
2023/10/30 05:12:00;;;;;;;16.40;3.88;;;20.60;99.90;;;;;;4998801;28;20034;-70
2023/10/30 05:14:26;;;;;;;;;;;20.50;99.90;;;;;;4993295;28;20031;-71
2023/10/30 05:16:53;;;;;;;12.65;3.80;;;20.50;99.90;;;;;;4975936;28;20415;-70
2023/10/30 05:19:19;;;;;;;14.73;4.13;;;20.50;99.90;;;;;;4973769;28;20034;-71
2023/10/30 05:21:45;;;;;;;12.20;3.70;;;20.50;99.90;;;;;;4975153;28;20106;-71
2023/10/30 05:24:11;;;;;;;12.52;3.70;;;20.50;99.90;;;;;;4956736;28;20137;-66
2023/10/30 05:26:37;;;;;;;15.45;3.78;;;20.50;99.90;;;;;;4974782;28;20027;-69
2023/10/30 05:29:03;;;;;;;19.35;3.65;;;20.50;99.90;;;;;;4974768;28;20034;-71
2023/10/30 05:31:30;;;;;;;15.80;3.35;;;20.50;99.90;;;;;;4974217;28;20030;-71
2023/10/30 05:33:56;;;;;;;8.98;3.40;;;20.50;99.90;;;;;;5000469;28;20037;-70
2023/10/30 05:36:22;;;;;;;15.73;3.53;;;20.50;99.90;;;;;;5013184;28;20561;-71
2023/10/30 05:38:48;;;;;;;10.95;3.35;;;20.50;99.90;;;;;;5013118;28;20065;-70
2023/10/30 05:41:14;;;;;;;11.77;3.42;;;20.50;99.90;;;;;;5005272;28;20056;-72
2023/10/30 05:43:40;;;;;;;7.70;3.30;;;20.60;99.90;;;;;;4991397;28;20463;-73
2023/10/30 05:46:06;;;;;;;10.65;3.08;;;20.60;99.90;;;;;;4986976;28;20169;-72
2023/10/30 05:48:32;;;;;;;15.20;3.25;;;20.60;99.90;;;;;;4993465;28;20030;-71
2023/10/30 05:50:58;;;;;;;9.25;3.00;;;20.60;99.90;;;;;;4993247;28;20426;-72
2023/10/30 05:53:24;;;;;;;16.92;3.30;;;20.60;99.90;;;;;;4992533;28;20052;-71
2023/10/30 05:55:50;;;;;;;9.48;3.40;;;20.60;99.90;;;;;;4992384;28;20041;-72
2023/10/30 05:58:17;;;;;;;10.20;3.58;;;20.60;99.90;;;;;;4993011;28;20023;-71
2023/10/30 06:00:43;;;;;;;;;;;20.60;99.90;;;;;;4994102;28;20029;-74
2023/10/30 06:03:09;;;;;;;12.48;3.00;;;20.70;99.90;;;;;;4991820;28;20364;-71
2023/10/30 06:05:36;;;;;;;8.18;2.80;;;20.70;99.90;;;;;;4993513;28;20395;-72
2023/10/30 06:08:02;;;;;;;14.45;3.47;;;20.70;99.90;;;;;;4992929;28;20073;-72
2023/10/30 06:10:28;;;;;;;10.40;3.20;;;20.70;99.90;;;;;;4992893;28;20035;-71
2023/10/30 06:12:54;;;;;;;13.85;3.00;;;20.70;99.90;;;;;;4992941;28;20414;-71
2023/10/30 06:15:21;;;;;;;10.90;3.13;;;20.70;99.90;;;;;;4992607;28;20109;-70
2023/10/30 06:17:47;;;;;;;13.40;3.08;;;20.70;99.90;;;;;;4993322;28;20364;-69
2023/10/30 06:20:13;;;;;;;13.77;3.20;;;20.70;99.90;;;;;;4993114;28;20030;-71
2023/10/30 06:22:39;;;;;;;10.70;2.83;;;20.70;99.90;;;;;;4993565;28;20129;-71
2023/10/30 06:25:07;;;;;;;10.82;4.13;;;20.80;99.90;;;;;;4993007;28;20037;-70
2023/10/30 06:27:34;;;;;;;7.07;2.65;;;20.80;99.90;;;;;;4993366;28;20025;-70
2023/10/30 06:30:00;;;;;;;;;;;20.80;99.90;;;;;;4992876;28;20057;-69
2023/10/30 06:32:26;;;;;;;13.63;2.65;;;20.80;99.90;;;;;;4996225;28;19926;-68
2023/10/30 06:34:54;;;;;;;9.98;2.80;;;20.90;99.90;;;;;;4996059;28;20498;-69
2023/10/30 06:37:20;;;;;;;12.27;2.35;;;21.10;99.90;;;;;;4996347;28;20049;-68
2023/10/30 06:39:46;;;;;;;9.05;2.47;;;21.50;99.90;;;;;;4978307;28;20081;-70
2023/10/30 06:42:12;;;;;;;10.60;2.70;;;21.80;99.90;;;;;;4995983;28;20106;-70
2023/10/30 06:44:38;;;;;;;10.80;2.72;;;21.70;99.90;;;;;;4995631;28;20030;-72
2023/10/30 06:47:04;;;;;;;8.85;2.88;;;21.70;99.90;;;;;;4995763;28;20424;-72
2023/10/30 06:49:30;;;;;;;8.98;2.55;;;21.60;99.90;;;;;;4995384;28;20526;-70
2023/10/30 06:51:56;;;;;;;11.93;2.83;;;21.90;99.90;;;;;;4995180;28;20030;-70
2023/10/30 06:54:22;;;;;;;12.60;2.80;;;22.50;99.90;;;;;;4994608;28;20152;-70
2023/10/30 06:56:48;;;;;;;12.15;2.83;;;22.30;99.90;;;;;;4995525;28;20033;-71
2023/10/30 06:59:16;;;;;;;7.65;2.53;;;22.20;99.90;;;;;;4994794;28;20125;-72
2023/10/30 07:01:44;;;;;;;13.50;2.70;;;22.20;99.90;;;;;;4993416;28;20113;-72
2023/10/30 07:04:14;;;;;;;11.32;2.92;;;22.00;99.90;;;;;;4994914;28;20046;-72
2023/10/30 07:06:43;;;;;;;9.43;3.00;;;21.90;99.90;;;;;;4994950;28;20027;-71
2023/10/30 07:09:10;;;;;;;13.82;2.63;;;22.00;99.90;;;;;;4977905;28;20022;-72
2023/10/30 07:11:36;;;;;;;;;;;21.80;99.90;;;;;;4994744;28;20145;-71
2023/10/30 07:14:04;;;;;;;13.25;2.47;;;21.90;99.90;;;;;;4994211;28;19917;-71
2023/10/30 07:16:30;;;;;;;11.05;2.47;;;21.80;99.90;;;;;;4994953;28;20067;-71
2023/10/30 07:18:57;;;;;;;11.88;2.63;;;21.80;99.90;;;;;;4976837;28;20473;-72
2023/10/30 07:21:24;;;;;;;11.52;2.70;;;21.80;99.90;;;;;;4994759;28;20431;-71
2023/10/30 07:23:51;;;;;;;12.82;2.45;;;21.80;99.90;;;;;;4994788;28;20018;-71
2023/10/30 07:26:18;;;;;;;12.23;2.28;;;21.70;99.90;;;;;;4994641;28;20034;-70
2023/10/30 07:28:44;;;;;;;10.00;2.35;;;21.80;99.90;;;;;;4995187;28;20022;-72
2023/10/30 07:31:12;;;;;;;8.77;1.88;;;21.80;99.90;;;;;;4994772;28;20105;-71
2023/10/30 07:33:38;;;;;;;9.10;2.50;;;21.80;99.90;;;;;;4994801;28;20058;-69
2023/10/30 07:36:05;;;;;;;12.20;2.33;;;21.80;99.90;;;;;;4975973;28;20160;-70
2023/10/30 07:38:31;;;;;;;9.63;2.40;;;21.90;99.90;;;;;;4974497;28;20093;-69
2023/10/30 07:40:58;;;;;;;7.28;2.38;;;21.90;99.90;;;;;;4980192;28;20553;-70
2023/10/30 07:43:24;;;;;;;13.93;2.33;;;22.00;99.90;;;;;;4977030;28;20072;-71
2023/10/30 07:45:50;;;;;;;7.97;2.05;;;21.90;99.90;;;;;;4994804;28;20479;-69
2023/10/30 07:48:17;;;;;;;10.40;2.42;;;22.00;99.90;;;;;;4994441;28;20363;-70
2023/10/30 07:50:43;;;;;;;9.55;2.35;;;22.10;99.90;;;;;;4976893;28;20022;-71
2023/10/30 07:53:09;;;;;;;11.20;2.42;;;22.20;99.90;;;;;;4994588;28;20534;-67
2023/10/30 07:55:39;;;;;;;4.85;1.83;;;22.20;99.90;;;;;;4993044;28;20109;-69
2023/10/30 07:58:05;;;;;;;9.25;2.38;;;22.30;99.90;;;;;;4994315;28;20479;-70
2023/10/30 08:00:32;;;;;;;7.57;2.25;;;22.50;99.90;;;;;;4993837;28;20061;-70
2023/10/30 08:03:00;;;;;;;9.00;2.50;;;22.50;99.90;;;;;;4993699;28;20027;-69
2023/10/30 08:05:27;;;;;;;16.90;2.70;;;22.60;99.90;;;;;;4993618;28;20065;-69
2023/10/30 08:07:53;;;;;;;10.02;2.42;;;22.60;99.90;;;;;;4994074;28;20097;-71
2023/10/30 08:10:19;;;;;;;8.43;2.55;;;22.70;99.90;;;;;;4994005;28;20036;-68
2023/10/30 08:12:45;;;;;;;10.73;2.88;;;22.70;99.90;;;;;;4993921;28;20490;-71
2023/10/30 08:15:12;;;;;;;8.23;2.60;;;22.80;99.90;;;;;;4976447;28;20104;-69
2023/10/30 08:17:38;;;;;;;14.57;2.72;;;22.90;99.90;;;;;;4993812;28;20029;-71
2023/10/30 08:20:05;;;;;;;12.77;2.60;;;22.80;99.90;;;;;;4991692;28;20025;-70
2023/10/30 08:22:32;;;;;;;13.23;2.30;;;23.00;99.90;;;;;;4984893;28;20030;-69
2023/10/30 08:24:59;;;;;;;9.48;2.50;;;23.20;99.90;;;;;;4987824;28;20037;-69
2023/10/30 08:27:25;;;;;;;10.00;2.50;;;23.30;99.90;;;;;;4985381;28;20022;-70
2023/10/30 08:29:51;;;;;;;8.45;2.55;;;23.40;99.90;;;;;;4993655;28;20092;-71
2023/10/30 08:32:18;;;;;;;10.90;2.47;;;23.50;99.90;;;;;;4993677;28;20101;-70
2023/10/30 08:34:44;;;;;;;9.52;2.33;;;23.70;99.90;;;;;;4993212;28;20039;-72
2023/10/30 08:37:10;;;;;;;7.80;1.98;;;23.80;99.90;;;;;;4992144;28;20537;-69
2023/10/30 08:39:37;;;;;;;7.65;2.50;;;23.80;99.90;;;;;;4993522;28;20034;-70
2023/10/30 08:42:04;;;;;;;12.50;2.80;;;23.70;99.90;;;;;;4993370;28;20030;-71
2023/10/30 08:44:33;;;;;;;13.98;2.40;;;23.90;99.90;;;;;;4993653;28;20068;-71
2023/10/30 08:46:59;;;;;;;11.55;2.45;;;24.20;99.90;;;;;;4993856;28;20052;-69
2023/10/30 08:49:26;;;;;;;7.95;2.40;;;24.40;99.90;;;;;;4993199;28;20104;-70
2023/10/30 08:51:53;;;;;;;;;;;24.50;99.90;;;;;;4992917;28;20029;-70
2023/10/30 08:54:19;;;;;;;13.43;2.30;;;24.80;99.90;;;;;;4992077;28;19909;-70
2023/10/30 08:56:45;;;;;;;14.25;2.30;;;25.10;99.90;;;;;;4992464;28;20081;-71
2023/10/30 08:59:12;;;;;;;11.93;2.20;;;25.10;99.90;;;;;;4975020;28;20120;-70
2023/10/30 09:01:38;;;;;;;11.57;2.17;;;25.20;99.90;;;;;;4992408;28;20034;-72
2023/10/30 09:04:05;;;;;;;9.45;2.28;;;25.10;99.90;;;;;;4992689;28;20051;-71
2023/10/30 09:06:32;;;;;;;10.48;2.35;;;24.90;99.90;;;;;;4992630;28;20027;-70
2023/10/30 09:08:58;;;;;;;8.38;2.17;;;24.80;99.90;;;;;;4993621;28;20037;-69
2023/10/30 09:11:24;;;;;;;10.35;2.67;;;24.60;99.90;;;;;;4992736;28;20030;-73
2023/10/30 09:13:50;;;;;;;11.07;2.90;;;24.60;99.90;;;;;;4992984;28;20026;-70
2023/10/30 09:16:16;;;;;;;10.90;2.00;;;24.80;99.90;;;;;;4992952;28;20104;-70
2023/10/30 09:18:42;;;;;;;13.15;2.15;;;24.70;99.90;;;;;;4975730;28;20030;-70
2023/10/30 09:21:09;;;;;;;15.30;2.70;;;24.80;99.90;;;;;;4993714;28;20038;-70
2023/10/30 09:23:35;;;;;;;10.73;1.98;;;24.60;99.90;;;;;;4975371;28;20025;-71
2023/10/30 09:26:03;;;;;;;12.90;2.00;;;24.30;99.90;;;;;;4991532;28;20471;-70
2023/10/30 09:28:29;;;;;;;14.43;2.75;;;24.30;99.90;;;;;;4993103;28;20061;-70
2023/10/30 09:30:55;;;;;;;13.02;2.40;;;24.60;99.90;;;;;;4992989;28;20022;-72
2023/10/30 09:33:21;;;;;;;12.40;2.03;;;24.60;99.90;;;;;;4975241;28;20030;-70
2023/10/30 09:35:47;;;;;;;13.00;2.40;;;24.70;99.90;;;;;;4974944;28;20038;-72
2023/10/30 09:38:13;;;;;;;9.43;2.38;;;24.30;99.90;;;;;;4992714;28;20430;-70
2023/10/30 09:40:39;;;;;;;10.50;2.17;;;24.30;99.90;;;;;;4992419;28;20109;-70
2023/10/30 09:43:09;;;;;;;12.70;2.60;;;24.30;99.90;;;;;;4992725;28;20157;-71
2023/10/30 09:45:37;;;;;;;10.70;2.25;;;24.40;99.90;;;;;;4992979;28;20467;-72
2023/10/30 09:48:05;;;;;;;11.00;2.42;;;24.40;99.90;;;;;;4975062;28;20329;-71
2023/10/30 09:50:33;;;;;;;12.85;2.35;;;24.50;99.90;;;;;;4992218;28;20018;-68
2023/10/30 09:53:01;;;;;;;11.60;2.25;;;24.40;99.90;;;;;;4991034;28;20034;-70
2023/10/30 09:55:28;;;;;;;12.43;2.55;;;24.60;99.90;;;;;;4975167;28;20182;-71
2023/10/30 09:57:54;;;;;;;9.38;2.42;;;24.20;99.90;;;;;;4992244;28;20105;-71
2023/10/30 10:00:21;;;;;;;13.13;2.47;;;24.20;99.90;;;;;;4992490;28;20085;-69
2023/10/30 10:02:47;;;;;;;9.98;2.00;;;24.50;99.90;;;;;;4992136;28;20030;-71
2023/10/30 10:05:15;;;;;;;;;;;24.50;99.90;;;;;;4992420;28;20058;-70
2023/10/30 10:07:41;;;;;;;11.95;2.30;;;24.70;99.90;;;;;;4989264;28;19913;-70
2023/10/30 10:10:12;;;;;;;8.15;1.90;;;24.80;99.90;;;;;;4973358;28;20027;-70
2023/10/30 10:12:38;;;;;;;9.57;2.00;;;24.80;99.90;;;;;;4995410;28;20408;-72
2023/10/30 10:15:06;;;;;;;10.52;2.20;;;24.60;99.90;;;;;;4996092;28;20038;-70
2023/10/30 10:17:44;;;;;;;10.25;2.35;;;24.60;99.90;;;;;;4994155;28;20033;-70
2023/10/30 10:20:11;;;;;;;10.30;2.28;;;24.70;99.90;;;;;;4995386;28;20471;-71
2023/10/30 10:22:37;;;;;;;;;;;24.80;99.90;;;;;;4996195;28;20033;-69
2023/10/30 10:25:04;;;;;;;12.63;2.22;;;25.20;99.90;;;;;;4996131;28;19909;-71
2023/10/30 10:27:32;;;;;;;12.75;2.15;;;25.50;99.90;;;;;;4996543;28;20114;-70
2023/10/30 10:29:58;;;;;;;7.05;1.98;;;25.70;99.90;;;;;;4995931;28;20200;-71
2023/10/30 10:32:28;;;;;;;11.55;1.90;;;25.40;99.90;;;;;;4996356;28;20109;-70
2023/10/30 10:35:05;;;;;;;9.77;1.98;;;25.30;99.90;;;;;;4995216;28;20034;-70
2023/10/30 10:37:32;;;;;;;13.77;2.05;;;25.30;99.90;;;;;;4996044;28;20037;-69
2023/10/30 10:39:59;;;;;;;8.10;1.95;;;25.40;99.90;;;;;;4996022;28;20053;-70
2023/10/30 10:42:27;;;;;;;11.40;2.15;;;25.50;99.90;;;;;;4995583;28;20085;-70
2023/10/30 10:44:55;;;;;;;13.20;2.35;;;25.90;99.90;;;;;;4995550;28;20025;-70
2023/10/30 10:47:22;;;;;;;26.48;3.22;;;26.10;99.90;;;;;;4994576;28;20089;-71
2023/10/30 10:49:50;;;;;;;13.35;2.33;;;26.00;99.90;;;;;;4995427;28;20087;-70
2023/10/30 10:52:18;;;;;;;9.73;2.47;;;26.10;99.90;;;;;;4984268;28;20058;-68
2023/10/30 10:55:03;;;;;;;14.43;3.35;;;26.00;99.90;;;;;;4975787;28;20042;-70
2023/10/30 10:57:39;;;;;;;8.70;2.80;;;26.10;99.90;;;;;;4960596;28;20038;-71
2023/10/30 11:00:11;;;;;;;9.23;3.33;;;26.00;99.90;;;;;;4995274;28;20042;-70
2023/10/30 11:02:39;;;;;;;10.93;2.83;;;26.00;99.90;;;;;;4995539;28;20015;-71
2023/10/30 11:05:06;;;;;;;11.55;2.70;;;25.80;99.90;;;;;;4987377;28;20069;-72
2023/10/30 11:07:45;;;;;;;10.20;2.05;;;25.80;99.90;;;;;;4975864;28;20061;-71
2023/10/30 11:10:27;;;;;;;11.25;2.00;;;25.70;99.90;;;;;;4958160;28;20042;-69
2023/10/30 11:13:10;;;;;;;8.25;1.75;;;25.60;99.90;;;;;;4978763;28;20122;-70
2023/10/30 11:15:45;;;;;;;7.65;1.73;;;25.40;99.90;;;;;;4987241;28;20034;-72
2023/10/30 11:18:24;;;;;;;13.10;2.58;;;25.10;99.90;;;;;;4973742;28;20022;-70
2023/10/30 11:21:08;;;;;;;8.82;1.83;;;24.90;99.90;;;;;;4992182;28;20030;-71
2023/10/30 11:23:58;;;;;;;8.65;2.25;;;25.10;99.90;;;;;;4977202;28;20049;-70
2023/10/30 11:26:30;;;;;;;6.68;1.80;;;25.20;99.90;;;;;;4994367;28;20451;-71
2023/10/30 11:28:57;;;;;;;7.20;1.80;;;25.10;99.90;;;;;;4993076;28;20089;-72
2023/10/30 11:31:27;;;;;;;7.45;2.10;;;25.10;99.90;;;;;;4976976;28;20066;-72
2023/10/30 11:34:07;;;;;;;11.73;2.28;;;25.20;99.90;;;;;;4975545;28;20060;-70
2023/10/30 11:36:34;;;;;;;7.72;2.22;;;25.10;99.90;;;;;;4975345;28;20030;-71
2023/10/30 11:39:00;;;;;;;9.00;2.15;;;25.40;99.90;;;;;;4975360;28;20379;-70
2023/10/30 11:41:28;;;;;;;10.70;1.90;;;25.50;99.90;;;;;;4983987;28;20037;-70
2023/10/30 11:44:10;;;;;;;8.45;1.73;;;25.50;99.90;;;;;;4994560;28;20498;-71
2023/10/30 11:46:44;;;;;;;10.13;1.90;;;25.90;99.90;;;;;;4993556;28;20033;-69
2023/10/30 11:49:15;;;;;;;11.07;1.80;;;26.20;99.90;;;;;;4994420;28;20451;-70
2023/10/30 11:51:45;;;;;;;8.85;1.50;;;26.30;99.90;;;;;;4994175;28;20034;-70
2023/10/30 11:54:11;;;;;;;8.88;1.50;;;26.10;99.90;;;;;;4994393;28;20030;-70
2023/10/30 11:56:47;;;;;;;9.10;1.60;;;25.70;99.90;;;;;;4993740;28;20027;-70
2023/10/30 11:59:13;;;;;;;9.95;1.65;;;25.70;99.90;;;;;;4994137;28;20049;-69
2023/10/30 12:01:39;;;;;;;7.90;1.70;;;25.70;99.90;;;;;;4993538;28;20037;-70
2023/10/30 12:04:05;;;;;;;15.25;2.00;;;26.10;99.90;;;;;;4993337;28;20100;-70
2023/10/30 12:06:31;;;;;;;9.23;1.77;;;26.20;99.90;;;;;;4994072;28;20486;-70
2023/10/30 12:08:57;;;;;;;12.18;2.03;;;26.40;99.90;;;;;;4993618;28;20026;-69
2023/10/30 12:11:23;;;;;;;14.43;2.40;;;26.60;99.90;;;;;;4993692;28;20027;-69
2023/10/30 12:13:50;;;;;;;8.20;1.83;;;26.40;99.90;;;;;;4992974;28;20029;-69
2023/10/30 12:16:16;;;;;;;10.25;2.17;;;26.30;99.90;;;;;;4992790;28;20038;-70
2023/10/30 12:18:43;;;;;;;15.88;1.83;;;26.40;99.90;;;;;;4976100;28;20446;-70
2023/10/30 12:21:09;;;;;;;10.15;1.95;;;26.60;99.90;;;;;;4993727;28;20077;-70
2023/10/30 12:23:47;;;;;;;14.00;2.05;;;26.60;99.90;;;;;;4994246;28;20035;-69
2023/10/30 12:26:15;;;;;;;12.00;1.90;;;26.70;99.90;;;;;;4993878;28;20049;-69
2023/10/30 12:28:41;;;;;;;10.43;1.70;;;26.40;99.90;;;;;;4993276;28;20081;-68
2023/10/30 12:31:22;;;;;;;8.82;1.70;;;26.20;99.90;;;;;;4994108;28;20101;-70
2023/10/30 12:34:09;;;;;;;16.20;1.90;;;26.00;99.90;;;;;;4993947;28;20029;-69
2023/10/30 12:36:37;;;;;;;11.05;1.80;;;25.70;99.90;;;;;;4994125;28;20039;-69
2023/10/30 12:39:21;;;;;;;8.45;1.80;;;25.70;99.90;;;;;;4976237;28;20030;-71
2023/10/30 12:41:52;;;;;;;8.70;1.88;;;25.60;99.90;;;;;;4993742;28;20026;-70
2023/10/30 12:44:18;;;;;;;11.93;2.10;;;25.50;99.90;;;;;;4994192;28;20450;-70